createdAt,value
2018-12-16T00:01:39.213Z,4.90
2018-12-16T00:04:07.829Z,4.90
2018-12-16T00:06:36.422Z,4.90
2018-12-16T00:09:06.694Z,4.90
2018-12-16T00:11:35.321Z,4.80
2018-12-16T00:14:03.917Z,4.80
2018-12-16T00:16:32.513Z,4.80
2018-12-16T00:19:01.094Z,4.80
2018-12-16T00:21:29.719Z,4.80
2018-12-16T00:23:58.277Z,4.80
2018-12-16T00:26:36.889Z,4.80
2018-12-16T00:29:05.975Z,4.80
2018-12-16T00:31:34.789Z,4.90
2018-12-16T00:34:03.527Z,4.90
2018-12-16T00:36:32.105Z,4.90
2018-12-16T00:39:00.661Z,5.00
2018-12-16T00:41:29.234Z,5.00
2018-12-16T00:43:57.812Z,5.00
2018-12-16T00:46:26.365Z,5.00
2018-12-16T00:48:55.073Z,5.10
2018-12-16T00:51:23.750Z,5.10
2018-12-16T00:53:52.368Z,5.10
2018-12-16T00:56:20.989Z,5.10
2018-12-16T00:58:49.621Z,5.20
2018-12-16T01:01:18.251Z,5.10
2018-12-16T01:03:46.922Z,5.10
2018-12-16T01:06:15.645Z,5.00
2018-12-16T01:08:44.354Z,5.00
2018-12-16T01:11:12.989Z,4.90
2018-12-16T01:13:41.594Z,4.90
2018-12-16T01:16:10.194Z,4.90
2018-12-16T01:18:38.782Z,4.90
2018-12-16T01:21:07.538Z,4.90
2018-12-16T01:23:36.103Z,4.90
2018-12-16T01:26:04.751Z,4.80
2018-12-16T01:28:33.546Z,4.80
2018-12-16T01:31:02.142Z,4.70
2018-12-16T01:33:31.007Z,4.70
2018-12-16T01:35:59.608Z,4.70
2018-12-16T01:38:28.220Z,4.70
2018-12-16T01:40:56.919Z,4.60
2018-12-16T01:43:25.527Z,4.70
2018-12-16T01:45:54.150Z,4.60
2018-12-16T01:48:22.758Z,4.60
2018-12-16T01:50:51.399Z,4.60
2018-12-16T01:53:20.008Z,4.60
2018-12-16T01:55:48.636Z,4.60
2018-12-16T01:58:17.328Z,4.60
2018-12-16T02:00:45.978Z,4.60
2018-12-16T02:03:14.674Z,4.70
2018-12-16T02:05:43.318Z,4.60
2018-12-16T02:08:11.893Z,4.70
2018-12-16T02:10:40.492Z,4.70
2018-12-16T02:13:09.043Z,4.70
2018-12-16T02:15:37.769Z,4.70
2018-12-16T02:18:06.450Z,4.60
2018-12-16T02:20:35.088Z,4.60
2018-12-16T02:23:03.759Z,4.60
2018-12-16T02:25:32.355Z,4.50
2018-12-16T02:28:00.926Z,4.60
2018-12-16T02:30:29.518Z,4.60
2018-12-16T02:32:58.150Z,4.60
2018-12-16T02:35:26.744Z,4.60
2018-12-16T02:37:55.378Z,4.70
2018-12-16T02:40:23.996Z,4.70
2018-12-16T02:42:52.575Z,4.70
2018-12-16T02:45:21.183Z,4.80
2018-12-16T02:47:49.827Z,4.80
2018-12-16T02:50:18.412Z,4.80
2018-12-16T02:52:47.010Z,4.80
2018-12-16T02:55:15.628Z,4.80
2018-12-16T02:57:44.211Z,4.70
2018-12-16T03:00:12.962Z,4.80
2018-12-16T03:02:41.550Z,4.80
2018-12-16T03:05:10.123Z,4.80
2018-12-16T03:07:38.685Z,4.80
2018-12-16T03:10:07.515Z,4.80
2018-12-16T03:12:36.148Z,4.80
2018-12-16T03:15:05.351Z,4.80
2018-12-16T03:17:34.021Z,4.80
2018-12-16T03:20:02.692Z,4.80
2018-12-16T03:22:31.375Z,4.80
2018-12-16T03:24:59.940Z,4.80
2018-12-16T03:27:28.502Z,4.80
2018-12-16T03:29:57.145Z,4.80
2018-12-16T03:32:25.801Z,4.90
2018-12-16T03:34:54.463Z,4.80
2018-12-16T03:37:23.133Z,4.80
2018-12-16T03:39:51.779Z,4.80
2018-12-16T03:42:20.435Z,4.70
2018-12-16T03:44:49.057Z,4.70
2018-12-16T03:47:17.696Z,4.70
2018-12-16T03:49:46.355Z,4.70
2018-12-16T03:52:14.953Z,4.80
2018-12-16T03:54:43.552Z,4.80
2018-12-16T03:57:12.219Z,4.90
2018-12-16T03:59:40.868Z,4.90
2018-12-16T04:02:09.539Z,5.00
2018-12-16T04:04:38.160Z,5.00
2018-12-16T04:07:06.784Z,5.00
2018-12-16T04:09:35.440Z,5.00
2018-12-16T04:12:04.120Z,5.00
2018-12-16T04:14:32.742Z,5.20
2018-12-16T04:17:01.383Z,5.00
2018-12-16T04:19:30.015Z,5.10
2018-12-16T04:21:58.677Z,5.00
2018-12-16T04:24:27.292Z,5.00
2018-12-16T04:26:55.954Z,5.00
2018-12-16T04:29:24.599Z,5.00
2018-12-16T04:31:53.194Z,5.00
2018-12-16T04:34:21.827Z,5.00
2018-12-16T04:36:50.495Z,5.00
2018-12-16T04:39:19.139Z,5.10
2018-12-16T04:41:47.744Z,5.10
2018-12-16T04:44:16.400Z,5.00
2018-12-16T04:46:45.036Z,5.00
2018-12-16T04:49:13.691Z,4.90
2018-12-16T04:51:42.343Z,4.90
2018-12-16T04:54:10.949Z,4.90
2018-12-16T04:56:39.552Z,4.90
2018-12-16T04:59:08.163Z,5.00
2018-12-16T05:01:36.807Z,5.00
2018-12-16T05:04:05.438Z,4.90
2018-12-16T05:06:34.067Z,4.90
2018-12-16T05:09:03.577Z,4.80
2018-12-16T05:11:32.239Z,4.80
2018-12-16T05:14:00.863Z,4.80
2018-12-16T05:16:29.521Z,4.90
2018-12-16T05:18:58.272Z,4.80
2018-12-16T05:21:26.956Z,4.80
2018-12-16T05:23:55.567Z,4.80
2018-12-16T05:26:24.233Z,4.70
2018-12-16T05:28:52.843Z,4.70
2018-12-16T05:31:21.447Z,4.70
2018-12-16T05:33:50.060Z,4.70
2018-12-16T05:36:18.684Z,4.70
2018-12-16T05:38:47.288Z,4.70
2018-12-16T05:41:15.931Z,4.70
2018-12-16T05:43:44.551Z,4.60
2018-12-16T05:46:14.189Z,4.70
2018-12-16T05:48:42.839Z,4.80
2018-12-16T05:51:11.472Z,4.80
2018-12-16T05:53:40.076Z,4.90
2018-12-16T05:56:09.114Z,4.90
2018-12-16T05:58:37.728Z,4.90
2018-12-16T06:01:06.523Z,5.00
2018-12-16T06:03:35.146Z,5.00
2018-12-16T06:06:03.795Z,5.10
2018-12-16T06:08:32.447Z,5.10
2018-12-16T06:11:01.036Z,5.10
2018-12-16T06:13:29.688Z,5.10
2018-12-16T06:15:58.288Z,5.10
2018-12-16T06:18:26.916Z,5.00
2018-12-16T06:20:55.551Z,5.00
2018-12-16T06:23:24.324Z,5.00
2018-12-16T06:25:52.953Z,5.10
2018-12-16T06:28:21.566Z,5.10
2018-12-16T06:30:50.506Z,5.10
2018-12-16T06:33:19.127Z,5.10
2018-12-16T06:35:47.730Z,5.10
2018-12-16T06:38:16.363Z,5.20
2018-12-16T06:40:44.988Z,5.20
2018-12-16T06:43:13.667Z,5.20
2018-12-16T06:45:42.371Z,5.20
2018-12-16T06:48:10.993Z,5.20
2018-12-16T06:50:39.684Z,5.20
2018-12-16T06:53:08.295Z,5.20
2018-12-16T06:55:43.095Z,5.20
2018-12-16T06:58:07.528Z,5.20
2018-12-16T07:00:36.113Z,5.30
2018-12-16T07:03:04.709Z,5.20
2018-12-16T07:05:33.305Z,5.20
2018-12-16T07:08:01.891Z,5.20
2018-12-16T07:10:30.498Z,5.20
2018-12-16T07:12:59.061Z,5.20
2018-12-16T07:15:27.629Z,5.30
2018-12-16T07:17:56.222Z,5.30
2018-12-16T07:20:24.879Z,5.30
2018-12-16T07:22:53.530Z,5.40
2018-12-16T07:25:22.166Z,5.40
2018-12-16T07:27:50.805Z,5.40
2018-12-16T07:30:22.430Z,5.30
2018-12-16T07:32:51.045Z,5.30
2018-12-16T07:35:19.642Z,5.30
2018-12-16T07:37:48.343Z,5.30
2018-12-16T07:40:16.971Z,5.30
2018-12-16T07:42:45.536Z,5.40
2018-12-16T07:45:14.132Z,5.40
2018-12-16T07:47:42.737Z,5.40
2018-12-16T07:50:11.442Z,5.50
2018-12-16T07:52:40.063Z,5.50
2018-12-16T07:55:08.723Z,5.50
2018-12-16T07:57:37.328Z,5.50
2018-12-16T08:00:07.828Z,5.50
2018-12-16T08:02:36.459Z,5.50
2018-12-16T08:05:05.387Z,5.50
2018-12-16T08:07:34.033Z,5.50
2018-12-16T08:10:02.651Z,5.50
2018-12-16T08:12:31.268Z,5.50
2018-12-16T08:15:01.116Z,5.50
2018-12-16T08:17:29.763Z,5.50
2018-12-16T08:19:58.384Z,5.50
2018-12-16T08:22:27.003Z,5.60
2018-12-16T08:24:55.599Z,5.60
2018-12-16T08:27:24.218Z,5.60
2018-12-16T08:29:52.823Z,5.60
2018-12-16T08:32:21.567Z,5.70
2018-12-16T08:34:50.191Z,5.70
2018-12-16T08:37:18.807Z,5.70
2018-12-16T08:39:47.427Z,5.60
2018-12-16T08:42:16.035Z,5.70
2018-12-16T08:44:44.678Z,5.70
2018-12-16T08:47:13.291Z,5.70
2018-12-16T08:49:41.908Z,5.70
2018-12-16T08:52:10.508Z,5.70
2018-12-16T08:54:39.123Z,5.70
2018-12-16T08:57:07.755Z,5.60
2018-12-16T08:59:36.377Z,5.70
2018-12-16T09:02:05.176Z,5.70
2018-12-16T09:04:33.763Z,5.70
2018-12-16T09:07:02.380Z,5.70
2018-12-16T09:09:31.479Z,5.80
2018-12-16T09:12:00.134Z,5.80
2018-12-16T09:14:28.756Z,5.60
2018-12-16T09:16:57.352Z,5.60
2018-12-16T09:19:25.961Z,5.70
2018-12-16T09:21:54.584Z,5.70
2018-12-16T09:24:23.205Z,5.70
2018-12-16T09:26:51.840Z,5.70
2018-12-16T09:29:20.468Z,5.80
2018-12-16T09:31:49.085Z,5.90
2018-12-16T09:34:17.671Z,5.90
2018-12-16T09:36:46.299Z,5.90
2018-12-16T09:39:14.945Z,5.90
2018-12-16T09:41:43.575Z,6.00
2018-12-16T09:44:12.211Z,6.00
2018-12-16T09:46:40.842Z,6.00
2018-12-16T09:49:09.464Z,6.00
2018-12-16T09:51:38.104Z,6.00
2018-12-16T09:54:06.707Z,6.00
2018-12-16T09:56:35.355Z,6.00
2018-12-16T09:59:03.996Z,6.00
2018-12-16T10:01:32.604Z,6.00
2018-12-16T10:04:01.248Z,6.00
2018-12-16T10:06:29.895Z,5.90
2018-12-16T10:08:58.805Z,6.00
2018-12-16T10:11:27.463Z,6.00
2018-12-16T10:13:56.851Z,6.00
2018-12-16T10:16:25.468Z,6.10
2018-12-16T10:18:54.079Z,6.10
2018-12-16T10:21:22.731Z,6.10
2018-12-16T10:23:51.402Z,6.10
2018-12-16T10:26:20.127Z,6.20
2018-12-16T10:28:48.731Z,6.20
2018-12-16T10:31:17.347Z,6.20
2018-12-16T10:33:45.971Z,6.10
2018-12-16T10:36:14.607Z,6.20
2018-12-16T10:38:43.237Z,6.20
2018-12-16T10:41:11.858Z,6.20
2018-12-16T10:43:40.483Z,6.20
2018-12-16T10:46:09.119Z,6.20
2018-12-16T10:48:37.751Z,6.00
2018-12-16T10:51:06.387Z,6.10
2018-12-16T10:53:36.568Z,6.10
2018-12-16T10:56:05.395Z,6.10
2018-12-16T10:58:33.995Z,6.20
2018-12-16T11:01:08.095Z,6.20
2018-12-16T11:03:36.716Z,6.30
2018-12-16T11:06:05.352Z,6.30
2018-12-16T11:08:34.164Z,6.40
2018-12-16T11:11:02.834Z,6.30
2018-12-16T11:13:31.422Z,6.40
2018-12-16T11:16:00.015Z,6.40
2018-12-16T11:18:28.631Z,6.50
2018-12-16T11:20:57.263Z,6.50
2018-12-16T11:23:25.871Z,6.50
2018-12-16T11:25:55.803Z,6.50
2018-12-16T11:28:24.403Z,6.50
2018-12-16T11:30:53.054Z,6.50
2018-12-16T11:33:22.503Z,6.50
2018-12-16T11:35:52.282Z,6.50
2018-12-16T11:38:20.889Z,6.50
2018-12-16T11:40:49.507Z,6.50
2018-12-16T11:43:18.155Z,6.60
2018-12-16T11:45:46.792Z,6.50
2018-12-16T11:48:15.432Z,6.60
2018-12-16T11:50:44.055Z,6.60
2018-12-16T11:53:12.777Z,6.60
2018-12-16T11:55:41.644Z,6.60
2018-12-16T11:58:11.203Z,6.60
2018-12-16T12:00:39.847Z,6.70
2018-12-16T12:03:08.780Z,6.70
2018-12-16T12:05:43.785Z,6.80
2018-12-16T12:08:12.923Z,6.80
2018-12-16T12:10:42.855Z,6.80
2018-12-16T12:13:11.784Z,6.80
2018-12-16T12:15:40.386Z,6.80
2018-12-16T12:18:17.518Z,6.80
2018-12-16T12:20:46.868Z,6.80
2018-12-16T12:23:17.159Z,6.80
2018-12-16T12:25:46.948Z,6.80
2018-12-16T12:28:15.682Z,6.80
2018-12-16T12:30:44.312Z,6.90
2018-12-16T12:33:13.053Z,6.90
2018-12-16T12:35:42.558Z,6.90
2018-12-16T12:38:11.663Z,6.90
2018-12-16T12:40:40.313Z,6.90
2018-12-16T12:43:08.959Z,6.90
2018-12-16T12:45:37.573Z,7.00
2018-12-16T12:48:06.173Z,7.00
2018-12-16T12:50:34.787Z,7.00
2018-12-16T12:53:03.587Z,6.90
2018-12-16T12:55:32.221Z,7.00
2018-12-16T12:58:00.844Z,7.00
2018-12-16T13:00:29.470Z,7.00
2018-12-16T13:02:58.143Z,7.00
2018-12-16T13:05:26.747Z,7.00
2018-12-16T13:07:55.340Z,7.00
2018-12-16T13:10:23.996Z,7.00
2018-12-16T13:12:52.592Z,7.00
2018-12-16T13:15:21.200Z,7.00
2018-12-16T13:17:49.827Z,7.00
2018-12-16T13:20:18.448Z,7.00
2018-12-16T13:22:47.052Z,7.00
2018-12-16T13:25:26.463Z,7.00
2018-12-16T13:27:55.110Z,6.90
2018-12-16T13:30:23.755Z,6.90
2018-12-16T13:32:52.364Z,6.90
2018-12-16T13:35:20.975Z,6.90
2018-12-16T13:37:49.555Z,6.80
2018-12-16T13:40:18.195Z,6.80
2018-12-16T13:42:46.819Z,6.80
2018-12-16T13:45:15.483Z,6.70
2018-12-16T13:47:44.080Z,6.70
2018-12-16T13:50:12.959Z,6.70
2018-12-16T13:52:41.574Z,6.60
2018-12-16T13:55:10.239Z,6.60
2018-12-16T13:57:39.495Z,6.60
2018-12-16T14:00:08.716Z,6.60
2018-12-16T14:02:37.327Z,6.70
2018-12-16T14:05:06.479Z,6.70
2018-12-16T14:07:35.082Z,6.70
2018-12-16T14:10:03.899Z,6.60
2018-12-16T14:12:32.585Z,6.60
2018-12-16T14:15:01.295Z,6.60
2018-12-16T14:17:29.887Z,6.70
2018-12-16T14:19:59.536Z,6.60
2018-12-16T14:22:28.140Z,6.70
2018-12-16T14:24:56.752Z,6.70
2018-12-16T14:27:25.355Z,6.80
2018-12-16T14:29:53.947Z,6.80
2018-12-16T14:32:22.563Z,6.80
2018-12-16T14:34:51.176Z,6.80
2018-12-16T14:37:19.783Z,6.70
2018-12-16T14:39:48.418Z,6.80
2018-12-16T14:42:17.114Z,6.80
2018-12-16T14:44:45.711Z,6.80
2018-12-16T14:47:14.343Z,6.80
2018-12-16T14:49:42.963Z,6.70
2018-12-16T14:52:11.602Z,6.70
2018-12-16T14:54:40.187Z,6.70
2018-12-16T14:57:08.815Z,6.80
2018-12-16T14:59:37.419Z,6.80
2018-12-16T15:02:06.124Z,6.70
2018-12-16T15:04:34.736Z,6.70
2018-12-16T15:07:03.362Z,6.70
2018-12-16T15:09:31.990Z,6.70
2018-12-16T15:12:00.610Z,6.60
2018-12-16T15:14:29.227Z,6.60
2018-12-16T15:16:57.851Z,6.70
2018-12-16T15:19:26.478Z,6.70
2018-12-16T15:21:55.107Z,6.80
2018-12-16T15:24:24.328Z,6.80
2018-12-16T15:26:52.970Z,6.80
2018-12-16T15:29:21.643Z,6.80
2018-12-16T15:31:54.879Z,6.80
2018-12-16T15:34:25.801Z,6.80
2018-12-16T15:36:54.881Z,6.80
2018-12-16T15:39:25.713Z,6.90
2018-12-16T15:42:00.686Z,6.80
2018-12-16T15:44:29.319Z,6.80
2018-12-16T15:46:57.937Z,6.80
2018-12-16T15:49:26.599Z,6.80
2018-12-16T15:51:55.296Z,6.80
2018-12-16T15:54:23.952Z,6.90
2018-12-16T15:56:52.603Z,6.80
2018-12-16T15:59:22.184Z,6.80
2018-12-16T16:01:50.832Z,6.80
2018-12-16T16:04:19.469Z,6.90
2018-12-16T16:06:48.106Z,6.90
2018-12-16T16:09:17.375Z,7.00
2018-12-16T16:11:47.670Z,7.00
2018-12-16T16:14:17.860Z,7.00
2018-12-16T16:16:46.492Z,7.00
2018-12-16T16:19:16.335Z,7.00
2018-12-16T16:21:45.775Z,7.00
2018-12-16T16:24:15.603Z,7.00
2018-12-16T16:26:46.453Z,7.00
2018-12-16T16:29:16.634Z,7.00
2018-12-16T16:31:45.246Z,7.00
2018-12-16T16:34:13.912Z,7.00
2018-12-16T16:36:42.523Z,7.00
2018-12-16T16:39:11.141Z,7.10
2018-12-16T16:41:39.797Z,7.10
2018-12-16T16:44:08.479Z,7.00
2018-12-16T16:46:37.129Z,7.00
2018-12-16T16:49:05.752Z,7.00
2018-12-16T16:51:34.439Z,7.00
2018-12-16T16:54:03.098Z,7.00
2018-12-16T16:56:31.731Z,7.00
2018-12-16T16:59:00.381Z,6.90
2018-12-16T17:01:29.001Z,6.70
2018-12-16T17:03:57.615Z,6.60
2018-12-16T17:06:26.259Z,6.60
2018-12-16T17:08:54.875Z,6.60
2018-12-16T17:11:24.274Z,6.60
2018-12-16T17:13:53.578Z,6.70
2018-12-16T17:16:22.262Z,6.70
2018-12-16T17:18:51.589Z,6.60
2018-12-16T17:21:20.205Z,6.60
2018-12-16T17:23:48.817Z,6.70
2018-12-16T17:26:17.472Z,6.70
2018-12-16T17:28:46.176Z,6.70
2018-12-16T17:31:14.887Z,6.70
2018-12-16T17:33:43.523Z,6.70
2018-12-16T17:36:12.250Z,6.70
2018-12-16T17:38:40.855Z,6.70
2018-12-16T17:41:09.490Z,6.80
2018-12-16T17:43:38.091Z,6.70
2018-12-16T17:46:06.740Z,6.70
2018-12-16T17:48:35.351Z,6.70
2018-12-16T17:51:04.016Z,6.70
2018-12-16T17:53:32.625Z,6.70
2018-12-16T17:56:01.538Z,6.70
2018-12-16T17:58:30.416Z,6.70
2018-12-16T18:00:59.088Z,6.70
2018-12-16T18:03:27.699Z,6.70
2018-12-16T18:05:56.318Z,6.70
2018-12-16T18:08:24.940Z,6.70
2018-12-16T18:10:53.628Z,6.70
2018-12-16T18:13:22.267Z,6.70
2018-12-16T18:15:50.903Z,6.70
2018-12-16T18:18:19.532Z,6.70
2018-12-16T18:20:48.220Z,6.80
2018-12-16T18:23:16.904Z,6.70
2018-12-16T18:25:45.507Z,6.70
2018-12-16T18:28:14.144Z,6.70
2018-12-16T18:30:42.771Z,6.70
2018-12-16T18:33:11.582Z,6.70
2018-12-16T18:35:40.240Z,6.70
2018-12-16T18:38:08.872Z,6.80
2018-12-16T18:40:37.504Z,6.70
2018-12-16T18:43:06.139Z,6.80
2018-12-16T18:45:34.755Z,6.80
2018-12-16T18:48:03.407Z,6.80
2018-12-16T18:50:32.031Z,6.80
2018-12-16T18:53:00.665Z,6.80
2018-12-16T18:55:29.331Z,6.90
2018-12-16T18:57:57.981Z,6.90
2018-12-16T19:00:26.626Z,6.90
2018-12-16T19:02:55.251Z,6.80
2018-12-16T19:05:23.880Z,6.90
2018-12-16T19:07:52.501Z,6.90
2018-12-16T19:10:21.144Z,6.90
2018-12-16T19:12:49.802Z,6.90
2018-12-16T19:15:19.194Z,6.90
2018-12-16T19:17:47.827Z,6.90
2018-12-16T19:20:16.488Z,6.90
2018-12-16T19:22:45.287Z,6.90
2018-12-16T19:25:13.924Z,6.90
2018-12-16T19:27:42.564Z,6.90
2018-12-16T19:30:11.227Z,7.00
2018-12-16T19:32:41.146Z,6.90
2018-12-16T19:35:09.991Z,7.00
2018-12-16T19:37:38.638Z,7.00
2018-12-16T19:40:07.415Z,7.00
2018-12-16T19:42:36.039Z,7.00
2018-12-16T19:45:05.496Z,7.00
2018-12-16T19:47:34.142Z,7.00
2018-12-16T19:50:02.979Z,7.00
2018-12-16T19:52:31.620Z,7.00
2018-12-16T19:55:00.416Z,7.00
2018-12-16T19:57:29.032Z,7.00
2018-12-16T19:59:57.693Z,7.00
2018-12-16T20:02:26.309Z,7.00
2018-12-16T20:05:00.245Z,7.00
2018-12-16T20:07:28.904Z,7.00
2018-12-16T20:09:57.528Z,7.00
2018-12-16T20:12:26.168Z,6.90
2018-12-16T20:14:54.823Z,6.80
2018-12-16T20:17:23.497Z,6.80
2018-12-16T20:19:52.123Z,6.90
2018-12-16T20:22:20.745Z,6.90
2018-12-16T20:24:49.354Z,7.00
2018-12-16T20:27:17.970Z,7.00
2018-12-16T20:29:46.589Z,7.10
2018-12-16T20:32:15.219Z,7.10
2018-12-16T20:34:43.833Z,7.10
2018-12-16T20:37:12.491Z,7.10
2018-12-16T20:39:41.095Z,7.10
2018-12-16T20:42:09.727Z,7.10
2018-12-16T20:44:38.388Z,7.20
2018-12-16T20:47:07.059Z,7.20
2018-12-16T20:49:35.683Z,7.10
2018-12-16T20:52:04.338Z,7.10
2018-12-16T20:54:33.005Z,7.20
2018-12-16T20:57:01.673Z,7.20
2018-12-16T20:59:30.272Z,7.20
2018-12-16T21:01:58.899Z,7.20
2018-12-16T21:04:27.524Z,7.10
2018-12-16T21:06:56.179Z,7.10
2018-12-16T21:09:24.791Z,7.10
2018-12-16T21:11:58.921Z,7.10
2018-12-16T21:14:32.985Z,7.10
2018-12-16T21:17:06.967Z,7.10
2018-12-16T21:19:35.760Z,7.10
2018-12-16T21:22:09.311Z,7.10
2018-12-16T21:24:37.921Z,7.00
2018-12-16T21:27:06.669Z,7.00
2018-12-16T21:29:35.303Z,7.00
2018-12-16T21:32:03.942Z,7.00
2018-12-16T21:34:32.559Z,7.00
2018-12-16T21:37:01.191Z,6.90
2018-12-16T21:39:29.844Z,6.90
2018-12-16T21:41:58.529Z,6.90
2018-12-16T21:44:27.239Z,6.80
2018-12-16T21:46:55.869Z,6.80
2018-12-16T21:49:24.491Z,6.80
2018-12-16T21:51:53.314Z,6.80
2018-12-16T21:54:22.947Z,6.70
2018-12-16T21:56:51.664Z,6.70
2018-12-16T21:59:20.320Z,6.60
2018-12-16T22:01:48.963Z,6.60
2018-12-16T22:04:17.613Z,6.60
2018-12-16T22:06:46.240Z,6.50
2018-12-16T22:09:16.321Z,6.50
2018-12-16T22:11:44.992Z,6.50
2018-12-16T22:14:13.671Z,6.50
2018-12-16T22:16:42.343Z,6.50
2018-12-16T22:19:12.191Z,6.50
2018-12-16T22:21:41.287Z,6.40
2018-12-16T22:24:11.113Z,6.40
2018-12-16T22:26:40.447Z,6.30
2018-12-16T22:29:09.098Z,6.20
2018-12-16T22:31:37.741Z,6.20
2018-12-16T22:34:06.380Z,6.30
2018-12-16T22:36:35.076Z,6.30
2018-12-16T22:39:05.627Z,6.40
2018-12-16T22:41:34.324Z,6.40
2018-12-16T22:44:03.247Z,6.40
2018-12-16T22:46:32.141Z,6.40
2018-12-16T22:49:00.782Z,6.40
2018-12-16T22:51:29.462Z,6.40
2018-12-16T22:53:58.114Z,6.30
2018-12-16T22:56:26.755Z,6.40
2018-12-16T22:58:55.376Z,6.30
2018-12-16T23:01:24.126Z,6.30
2018-12-16T23:03:52.796Z,6.30
2018-12-16T23:06:21.432Z,6.30
2018-12-16T23:08:50.051Z,6.30
2018-12-16T23:11:18.669Z,6.30
2018-12-16T23:13:47.331Z,6.30
2018-12-16T23:16:15.952Z,6.20
2018-12-16T23:18:44.719Z,6.20
2018-12-16T23:21:13.576Z,6.30
2018-12-16T23:23:42.344Z,6.30
2018-12-16T23:26:11.013Z,6.30
2018-12-16T23:28:39.680Z,6.40
2018-12-16T23:31:08.329Z,6.40
2018-12-16T23:33:37.008Z,6.50
2018-12-16T23:36:05.660Z,6.60
2018-12-16T23:38:34.288Z,6.70
2018-12-16T23:41:02.956Z,6.80
2018-12-16T23:43:31.565Z,7.00
2018-12-16T23:46:00.202Z,7.10
2018-12-16T23:48:28.848Z,7.20
2018-12-16T23:50:57.477Z,7.30
2018-12-16T23:53:26.079Z,7.30
2018-12-16T23:55:54.693Z,7.50
2018-12-16T23:58:23.306Z,7.40
